sensor_id;sensor_type;location;lat;lon;timestamp;pressure;altitude;pressure_sealevel;temperature;humidity
53522;BME280;39398;48.382;9.802;2023-05-29T00:01:38;93834.22;;;12.09;98.35
53522;BME280;39398;48.382;9.802;2023-05-29T00:06:41;93831.09;;;11.79;100.00
53522;BME280;39398;48.382;9.802;2023-05-29T00:11:43;93830.47;;;11.83;100.00
53522;BME280;39398;48.382;9.802;2023-05-29T00:16:45;93832.53;;;11.75;100.00
53522;BME280;39398;48.382;9.802;2023-05-29T00:21:48;93819.06;;;11.63;100.00
53522;BME280;39398;48.382;9.802;2023-05-29T00:26:49;93817.94;;;12.39;96.61
53522;BME280;39398;48.382;9.802;2023-05-29T00:31:51;93815.34;;;11.37;100.00
53522;BME280;39398;48.382;9.802;2023-05-29T00:36:54;93817.81;;;11.46;100.00
53522;BME280;39398;48.382;9.802;2023-05-29T00:41:56;93823.19;;;11.11;100.00
53522;BME280;39398;48.382;9.802;2023-05-29T00:46:57;93826.41;;;11.06;100.00
53522;BME280;39398;48.382;9.802;2023-05-29T00:52:01;93831.66;;;11.00;100.00
53522;BME280;39398;48.382;9.802;2023-05-29T00:57:04;93817.28;;;11.09;100.00
53522;BME280;39398;48.382;9.802;2023-05-29T01:02:06;93817.16;;;11.30;100.00
53522;BME280;39398;48.382;9.802;2023-05-29T01:07:10;93816.28;;;11.16;100.00
53522;BME280;39398;48.382;9.802;2023-05-29T01:12:23;93810.53;;;11.00;100.00
53522;BME280;39398;48.382;9.802;2023-05-29T01:17:34;93814.75;;;10.94;100.00
53522;BME280;39398;48.382;9.802;2023-05-29T01:28:09;93812.84;;;11.29;100.00
53522;BME280;39398;48.382;9.802;2023-05-29T01:33:11;93811.13;;;11.63;100.00
53522;BME280;39398;48.382;9.802;2023-05-29T01:38:14;93808.50;;;11.63;100.00
53522;BME280;39398;48.382;9.802;2023-05-29T01:43:17;93826.31;;;11.34;100.00
53522;BME280;39398;48.382;9.802;2023-05-29T01:48:19;93833.75;;;11.11;100.00
53522;BME280;39398;48.382;9.802;2023-05-29T01:53:21;93830.28;;;11.10;100.00
53522;BME280;39398;48.382;9.802;2023-05-29T01:58:25;93825.66;;;11.26;100.00
53522;BME280;39398;48.382;9.802;2023-05-29T02:03:27;93825.97;;;11.03;100.00
53522;BME280;39398;48.382;9.802;2023-05-29T02:08:29;93812.75;;;10.96;100.00
53522;BME280;39398;48.382;9.802;2023-05-29T02:13:32;93821.84;;;10.87;100.00
53522;BME280;39398;48.382;9.802;2023-05-29T02:18:34;93815.38;;;10.96;100.00
53522;BME280;39398;48.382;9.802;2023-05-29T02:23:35;93819.91;;;11.09;100.00
53522;BME280;39398;48.382;9.802;2023-05-29T02:28:38;93819.53;;;11.12;100.00
53522;BME280;39398;48.382;9.802;2023-05-29T02:33:40;93816.63;;;11.07;100.00
53522;BME280;39398;48.382;9.802;2023-05-29T02:38:41;93818.88;;;11.10;100.00
53522;BME280;39398;48.382;9.802;2023-05-29T02:43:44;93817.59;;;11.40;100.00
53522;BME280;39398;48.382;9.802;2023-05-29T02:48:46;93812.63;;;11.17;100.00
53522;BME280;39398;48.382;9.802;2023-05-29T02:53:47;93814.69;;;10.81;100.00
53522;BME280;39398;48.382;9.802;2023-05-29T02:58:50;93817.47;;;10.66;100.00
53522;BME280;39398;48.382;9.802;2023-05-29T03:03:52;93818.31;;;10.73;100.00
53522;BME280;39398;48.382;9.802;2023-05-29T03:08:53;93816.38;;;10.54;100.00
53522;BME280;39398;48.382;9.802;2023-05-29T03:13:56;93819.59;;;10.49;100.00
53522;BME280;39398;48.382;9.802;2023-05-29T03:18:58;93814.56;;;10.54;100.00
53522;BME280;39398;48.382;9.802;2023-05-29T03:24:00;93818.91;;;10.75;100.00
53522;BME280;39398;48.382;9.802;2023-05-29T03:29:02;93805.84;;;10.95;100.00
53522;BME280;39398;48.382;9.802;2023-05-29T03:34:04;93814.91;;;10.44;100.00
53522;BME280;39398;48.382;9.802;2023-05-29T03:39:05;93816.53;;;10.24;100.00
53522;BME280;39398;48.382;9.802;2023-05-29T03:44:08;93817.13;;;10.19;100.00
53522;BME280;39398;48.382;9.802;2023-05-29T03:49:10;93820.34;;;10.43;100.00
53522;BME280;39398;48.382;9.802;2023-05-29T03:54:11;93815.16;;;10.91;100.00
53522;BME280;39398;48.382;9.802;2023-05-29T03:59:14;93824.19;;;10.75;100.00
53522;BME280;39398;48.382;9.802;2023-05-29T04:04:16;93818.31;;;10.73;100.00
53522;BME280;39398;48.382;9.802;2023-05-29T04:09:18;93826.25;;;10.73;100.00
53522;BME280;39398;48.382;9.802;2023-05-29T04:14:20;93824.34;;;10.95;100.00
53522;BME280;39398;48.382;9.802;2023-05-29T04:19:22;93832.78;;;10.84;100.00
53522;BME280;39398;48.382;9.802;2023-05-29T04:24:24;93832.13;;;11.16;100.00
53522;BME280;39398;48.382;9.802;2023-05-29T04:29:26;93848.97;;;11.09;100.00
53522;BME280;39398;48.382;9.802;2023-05-29T04:34:28;93844.81;;;11.34;100.00
53522;BME280;39398;48.382;9.802;2023-05-29T04:39:30;93850.53;;;11.45;100.00
53522;BME280;39398;48.382;9.802;2023-05-29T04:44:33;93857.66;;;11.51;100.00
53522;BME280;39398;48.382;9.802;2023-05-29T04:49:35;93860.41;;;11.77;100.00
53522;BME280;39398;48.382;9.802;2023-05-29T04:54:40;93873.88;;;11.89;100.00
53522;BME280;39398;48.382;9.802;2023-05-29T04:59:43;93869.84;;;12.00;100.00
53522;BME280;39398;48.382;9.802;2023-05-29T05:04:45;93870.88;;;12.25;100.00
53522;BME280;39398;48.382;9.802;2023-05-29T05:09:47;93873.31;;;12.53;100.00
53522;BME280;39398;48.382;9.802;2023-05-29T05:14:49;93877.78;;;12.73;100.00
53522;BME280;39398;48.382;9.802;2023-05-29T05:19:52;93882.47;;;12.77;100.00
53522;BME280;39398;48.382;9.802;2023-05-29T05:24:54;93878.19;;;12.90;100.00
53522;BME280;39398;48.382;9.802;2023-05-29T05:29:56;93881.22;;;13.00;100.00
53522;BME280;39398;48.382;9.802;2023-05-29T05:34:58;93880.56;;;13.31;100.00
53522;BME280;39398;48.382;9.802;2023-05-29T05:39:59;93890.47;;;13.49;100.00
53522;BME280;39398;48.382;9.802;2023-05-29T05:45:03;93886.88;;;13.75;100.00
53522;BME280;39398;48.382;9.802;2023-05-29T05:50:05;93886.81;;;14.27;100.00
53522;BME280;39398;48.382;9.802;2023-05-29T05:55:08;93888.25;;;14.23;99.84
53522;BME280;39398;48.382;9.802;2023-05-29T06:00:12;93887.72;;;14.14;100.00
53522;BME280;39398;48.382;9.802;2023-05-29T06:05:14;93895.09;;;14.37;100.00
53522;BME280;39398;48.382;9.802;2023-05-29T06:10:15;93891.03;;;14.34;100.00
53522;BME280;39398;48.382;9.802;2023-05-29T06:15:18;93897.50;;;14.52;100.00
53522;BME280;39398;48.382;9.802;2023-05-29T06:20:20;93906.16;;;14.34;100.00
53522;BME280;39398;48.382;9.802;2023-05-29T06:25:22;93900.19;;;14.70;99.08
53522;BME280;39398;48.382;9.802;2023-05-29T06:30:24;93913.53;;;14.88;100.00
53522;BME280;39398;48.382;9.802;2023-05-29T06:35:26;93932.56;;;14.85;100.00
53522;BME280;39398;48.382;9.802;2023-05-29T06:40:28;93932.44;;;14.74;99.59
53522;BME280;39398;48.382;9.802;2023-05-29T06:45:30;93921.63;;;15.19;100.00
53522;BME280;39398;48.382;9.802;2023-05-29T06:50:32;93934.66;;;15.27;99.64
53522;BME280;39398;48.382;9.802;2023-05-29T06:55:34;93936.56;;;15.20;100.00
53522;BME280;39398;48.382;9.802;2023-05-29T07:00:37;93932.97;;;15.69;98.92
53522;BME280;39398;48.382;9.802;2023-05-29T07:05:38;93934.53;;;15.58;97.48
53522;BME280;39398;48.382;9.802;2023-05-29T07:10:40;93933.56;;;16.08;100.00
53522;BME280;39398;48.382;9.802;2023-05-29T07:15:43;93944.22;;;15.90;94.42
53522;BME280;39398;48.382;9.802;2023-05-29T07:20:45;93947.47;;;16.94;92.55
53522;BME280;39398;48.382;9.802;2023-05-29T07:25:46;93946.63;;;16.70;93.74
53522;BME280;39398;48.382;9.802;2023-05-29T07:30:49;93954.00;;;17.10;90.81
53522;BME280;39398;48.382;9.802;2023-05-29T07:35:51;93953.81;;;17.23;86.20
53522;BME280;39398;48.382;9.802;2023-05-29T07:40:52;93946.56;;;17.94;83.98
53522;BME280;39398;48.382;9.802;2023-05-29T07:45:56;93943.47;;;18.43;80.39
53522;BME280;39398;48.382;9.802;2023-05-29T07:50:58;93944.72;;;17.71;86.11
53522;BME280;39398;48.382;9.802;2023-05-29T07:56:00;93951.28;;;18.04;86.69
53522;BME280;39398;48.382;9.802;2023-05-29T08:01:02;93961.25;;;18.94;82.03
53522;BME280;39398;48.382;9.802;2023-05-29T08:06:04;93953.72;;;18.34;78.90
53522;BME280;39398;48.382;9.802;2023-05-29T08:11:06;93965.31;;;18.97;81.30
53522;BME280;39398;48.382;9.802;2023-05-29T08:16:09;93960.44;;;18.77;79.19
53522;BME280;39398;48.382;9.802;2023-05-29T08:21:10;93967.50;;;19.50;75.55
53522;BME280;39398;48.382;9.802;2023-05-29T08:26:12;93958.81;;;19.26;82.94
53522;BME280;39398;48.382;9.802;2023-05-29T08:31:15;93967.34;;;19.23;79.24
53522;BME280;39398;48.382;9.802;2023-05-29T08:36:17;93972.63;;;19.35;79.27
53522;BME280;39398;48.382;9.802;2023-05-29T08:41:21;93971.63;;;19.58;76.54
53522;BME280;39398;48.382;9.802;2023-05-29T08:46:27;93962.47;;;19.54;78.09
53522;BME280;39398;48.382;9.802;2023-05-29T08:51:32;93974.22;;;19.36;80.45
53522;BME280;39398;48.382;9.802;2023-05-29T08:56:35;93964.03;;;19.16;79.05
53522;BME280;39398;48.382;9.802;2023-05-29T09:01:38;93969.31;;;20.72;72.27
53522;BME280;39398;48.382;9.802;2023-05-29T09:06:40;93974.38;;;20.46;77.91
53522;BME280;39398;48.382;9.802;2023-05-29T09:11:41;93966.34;;;20.02;70.79
53522;BME280;39398;48.382;9.802;2023-05-29T09:16:44;93970.13;;;21.64;68.97
53522;BME280;39398;48.382;9.802;2023-05-29T09:21:46;93968.19;;;21.54;62.22
53522;BME280;39398;48.382;9.802;2023-05-29T09:26:49;93952.44;;;20.71;70.51
53522;BME280;39398;48.382;9.802;2023-05-29T09:31:52;93976.28;;;20.24;68.49
53522;BME280;39398;48.382;9.802;2023-05-29T09:37:00;93973.97;;;21.41;65.24
53522;BME280;39398;48.382;9.802;2023-05-29T09:42:04;93975.56;;;20.77;66.41
53522;BME280;39398;48.382;9.802;2023-05-29T09:47:07;93981.19;;;21.72;58.10
53522;BME280;39398;48.382;9.802;2023-05-29T09:52:11;93989.00;;;21.74;61.82
53522;BME280;39398;48.382;9.802;2023-05-29T09:57:12;93978.56;;;21.82;65.04
53522;BME280;39398;48.382;9.802;2023-05-29T10:02:15;93991.28;;;21.97;62.30
53522;BME280;39398;48.382;9.802;2023-05-29T10:07:23;93982.84;;;22.21;64.62
53522;BME280;39398;48.382;9.802;2023-05-29T10:12:27;93988.56;;;22.45;65.67
53522;BME280;39398;48.382;9.802;2023-05-29T10:17:33;93980.25;;;20.92;69.04
53522;BME280;39398;48.382;9.802;2023-05-29T10:22:40;93977.19;;;21.10;70.67
53522;BME280;39398;48.382;9.802;2023-05-29T10:27:45;93978.44;;;21.62;69.94
53522;BME280;39398;48.382;9.802;2023-05-29T10:32:59;93973.31;;;21.61;69.86
53522;BME280;39398;48.382;9.802;2023-05-29T10:38:10;93978.72;;;22.13;64.57
53522;BME280;39398;48.382;9.802;2023-05-29T10:43:29;93971.09;;;20.88;61.19
53522;BME280;39398;48.382;9.802;2023-05-29T10:48:42;93966.56;;;20.44;59.90
53522;BME280;39398;48.382;9.802;2023-05-29T10:53:44;93974.78;;;20.82;63.36
53522;BME280;39398;48.382;9.802;2023-05-29T10:58:51;93972.78;;;22.11;59.34
53522;BME280;39398;48.382;9.802;2023-05-29T11:04:28;93965.38;;;20.79;55.18
53522;BME280;39398;48.382;9.802;2023-05-29T11:09:32;93970.84;;;21.22;57.12
53522;BME280;39398;48.382;9.802;2023-05-29T11:14:44;93963.22;;;21.35;55.99
53522;BME280;39398;48.382;9.802;2023-05-29T11:19:48;93963.28;;;21.13;54.11
53522;BME280;39398;48.382;9.802;2023-05-29T11:24:50;93952.16;;;21.32;64.19
53522;BME280;39398;48.382;9.802;2023-05-29T11:29:52;93962.41;;;21.77;54.86
53522;BME280;39398;48.382;9.802;2023-05-29T11:34:56;93961.22;;;20.94;51.42
53522;BME280;39398;48.382;9.802;2023-05-29T11:39:59;93953.03;;;21.10;53.10
53522;BME280;39398;48.382;9.802;2023-05-29T11:45:12;93951.22;;;20.84;51.02
53522;BME280;39398;48.382;9.802;2023-05-29T11:50:19;93955.22;;;21.88;48.96
53522;BME280;39398;48.382;9.802;2023-05-29T11:55:22;93959.44;;;22.21;49.03
53522;BME280;39398;48.382;9.802;2023-05-29T12:00:25;93964.66;;;22.59;49.94
53522;BME280;39398;48.382;9.802;2023-05-29T12:05:28;93965.00;;;21.62;56.45
53522;BME280;39398;48.382;9.802;2023-05-29T12:10:30;93958.25;;;22.02;47.53
53522;BME280;39398;48.382;9.802;2023-05-29T12:15:31;93952.78;;;21.12;48.89
53522;BME280;39398;48.382;9.802;2023-05-29T12:20:34;93953.81;;;22.28;54.98
53522;BME280;39398;48.382;9.802;2023-05-29T12:25:36;93961.56;;;22.19;54.84
53522;BME280;39398;48.382;9.802;2023-05-29T12:30:38;93951.50;;;21.99;54.02
53522;BME280;39398;48.382;9.802;2023-05-29T12:35:45;93964.72;;;21.58;52.92
53522;BME280;39398;48.382;9.802;2023-05-29T12:40:48;93960.94;;;22.02;47.08
53522;BME280;39398;48.382;9.802;2023-05-29T12:45:54;93955.44;;;22.29;45.21
53522;BME280;39398;48.382;9.802;2023-05-29T12:50:57;93961.41;;;22.41;48.20
53522;BME280;39398;48.382;9.802;2023-05-29T12:55:59;93955.75;;;22.43;47.21
53522;BME280;39398;48.382;9.802;2023-05-29T13:01:03;93957.34;;;22.34;51.60
53522;BME280;39398;48.382;9.802;2023-05-29T13:06:06;93955.44;;;22.29;52.52
53522;BME280;39398;48.382;9.802;2023-05-29T13:11:08;93951.91;;;22.18;49.96
53522;BME280;39398;48.382;9.802;2023-05-29T13:16:09;93956.69;;;21.64;54.19
53522;BME280;39398;48.382;9.802;2023-05-29T13:21:12;93953.16;;;22.05;52.70
53522;BME280;39398;48.382;9.802;2023-05-29T13:26:14;93938.25;;;21.40;52.84
53522;BME280;39398;48.382;9.802;2023-05-29T13:31:15;93950.63;;;21.41;53.31
53522;BME280;39398;48.382;9.802;2023-05-29T13:36:18;93956.09;;;21.99;58.34
53522;BME280;39398;48.382;9.802;2023-05-29T13:41:20;93951.09;;;22.18;48.41
53522;BME280;39398;48.382;9.802;2023-05-29T13:46:22;93955.97;;;21.78;52.28
53522;BME280;39398;48.382;9.802;2023-05-29T13:51:25;93949.22;;;21.76;53.00
53522;BME280;39398;48.382;9.802;2023-05-29T13:56:26;93944.53;;;22.03;51.10
53522;BME280;39398;48.382;9.802;2023-05-29T14:01:29;93934.88;;;22.02;46.03
53522;BME280;39398;48.382;9.802;2023-05-29T14:06:32;93936.97;;;22.68;46.25
53522;BME280;39398;48.382;9.802;2023-05-29T14:11:34;93930.13;;;21.72;47.55
53522;BME280;39398;48.382;9.802;2023-05-29T14:16:35;93927.31;;;22.62;49.44
53522;BME280;39398;48.382;9.802;2023-05-29T14:21:39;93926.72;;;22.55;49.38
53522;BME280;39398;48.382;9.802;2023-05-29T14:26:40;93931.81;;;21.89;50.20
53522;BME280;39398;48.382;9.802;2023-05-29T14:31:43;93936.09;;;22.42;42.95
53522;BME280;39398;48.382;9.802;2023-05-29T14:36:46;93934.97;;;22.23;47.55
53522;BME280;39398;48.382;9.802;2023-05-29T14:41:48;93930.25;;;21.93;49.07
53522;BME280;39398;48.382;9.802;2023-05-29T14:46:50;93928.22;;;22.20;50.69
53522;BME280;39398;48.382;9.802;2023-05-29T14:51:52;93925.75;;;22.14;52.45
53522;BME280;39398;48.382;9.802;2023-05-29T14:56:54;93919.50;;;21.93;50.36
53522;BME280;39398;48.382;9.802;2023-05-29T15:01:55;93918.25;;;21.58;48.43
53522;BME280;39398;48.382;9.802;2023-05-29T15:06:58;93920.53;;;21.87;50.24
53522;BME280;39398;48.382;9.802;2023-05-29T15:12:07;93914.91;;;22.71;46.96
53522;BME280;39398;48.382;9.802;2023-05-29T15:17:09;93902.75;;;21.75;50.04
53522;BME280;39398;48.382;9.802;2023-05-29T15:22:12;93916.78;;;22.56;48.61
53522;BME280;39398;48.382;9.802;2023-05-29T15:27:13;93911.97;;;22.73;41.83
53522;BME280;39398;48.382;9.802;2023-05-29T15:32:15;93907.09;;;22.55;45.58
53522;BME280;39398;48.382;9.802;2023-05-29T15:37:18;93914.78;;;22.20;46.85
53522;BME280;39398;48.382;9.802;2023-05-29T15:42:19;93908.47;;;21.89;48.45
53522;BME280;39398;48.382;9.802;2023-05-29T15:47:21;93906.34;;;21.96;42.88
53522;BME280;39398;48.382;9.802;2023-05-29T15:52:24;93905.53;;;22.01;44.85
53522;BME280;39398;48.382;9.802;2023-05-29T15:57:25;93900.63;;;21.77;42.03
53522;BME280;39398;48.382;9.802;2023-05-29T16:02:27;93895.97;;;22.20;46.51
53522;BME280;39398;48.382;9.802;2023-05-29T16:07:30;93887.16;;;22.40;46.41
53522;BME280;39398;48.382;9.802;2023-05-29T16:12:31;93897.84;;;22.20;41.85
53522;BME280;39398;48.382;9.802;2023-05-29T16:17:33;93887.97;;;22.41;41.34
53522;BME280;39398;48.382;9.802;2023-05-29T16:22:36;93892.63;;;21.98;44.35
53522;BME280;39398;48.382;9.802;2023-05-29T16:27:43;93893.91;;;21.80;44.75
53522;BME280;39398;48.382;9.802;2023-05-29T16:32:44;93886.72;;;21.43;43.69
53522;BME280;39398;48.382;9.802;2023-05-29T16:37:47;93889.59;;;21.31;42.68
53522;BME280;39398;48.382;9.802;2023-05-29T16:42:49;93887.00;;;21.47;45.69
53522;BME280;39398;48.382;9.802;2023-05-29T16:47:50;93887.63;;;21.22;45.37
53522;BME280;39398;48.382;9.802;2023-05-29T16:52:53;93886.00;;;21.21;44.27
53522;BME280;39398;48.382;9.802;2023-05-29T16:57:55;93888.50;;;21.70;45.15
53522;BME280;39398;48.382;9.802;2023-05-29T17:02:57;93886.72;;;21.43;43.75
53522;BME280;39398;48.382;9.802;2023-05-29T17:08:00;93888.75;;;21.31;45.31
53522;BME280;39398;48.382;9.802;2023-05-29T17:13:01;93893.44;;;21.46;44.96
53522;BME280;39398;48.382;9.802;2023-05-29T17:18:03;93897.16;;;21.87;43.44
53522;BME280;39398;48.382;9.802;2023-05-29T17:23:06;93896.50;;;21.65;42.71
53522;BME280;39398;48.382;9.802;2023-05-29T17:28:08;93898.28;;;21.11;44.08
53522;BME280;39398;48.382;9.802;2023-05-29T17:33:09;93905.56;;;21.48;42.24
53522;BME280;39398;48.382;9.802;2023-05-29T17:38:12;93902.81;;;21.38;45.22
53522;BME280;39398;48.382;9.802;2023-05-29T17:43:14;93909.38;;;21.20;44.77
53522;BME280;39398;48.382;9.802;2023-05-29T17:48:15;93909.88;;;20.85;46.15
53522;BME280;39398;48.382;9.802;2023-05-29T17:53:18;93909.34;;;20.56;46.87
53522;BME280;39398;48.382;9.802;2023-05-29T17:58:20;93912.41;;;20.64;49.67
53522;BME280;39398;48.382;9.802;2023-05-29T18:03:21;93921.28;;;20.70;48.38
53522;BME280;39398;48.382;9.802;2023-05-29T18:08:25;93915.03;;;20.59;49.50
53522;BME280;39398;48.382;9.802;2023-05-29T18:13:26;93917.16;;;20.35;52.82
53522;BME280;39398;48.382;9.802;2023-05-29T18:18:28;93920.50;;;20.20;54.53
53522;BME280;39398;48.382;9.802;2023-05-29T18:23:32;93928.28;;;20.00;53.62
53522;BME280;39398;48.382;9.802;2023-05-29T18:28:33;93921.81;;;19.96;53.99
53522;BME280;39398;48.382;9.802;2023-05-29T18:33:36;93920.69;;;19.92;55.20
53522;BME280;39398;48.382;9.802;2023-05-29T18:38:39;93912.63;;;19.70;55.14
53522;BME280;39398;48.382;9.802;2023-05-29T18:43:41;93920.59;;;19.65;53.84
53522;BME280;39398;48.382;9.802;2023-05-29T18:48:42;93917.34;;;19.46;54.47
53522;BME280;39398;48.382;9.802;2023-05-29T18:53:45;93918.63;;;19.21;55.84
53522;BME280;39398;48.382;9.802;2023-05-29T18:58:47;93919.34;;;19.34;53.80
53522;BME280;39398;48.382;9.802;2023-05-29T19:03:49;93923.53;;;19.29;55.00
53522;BME280;39398;48.382;9.802;2023-05-29T19:08:52;93922.09;;;18.88;54.71
53522;BME280;39398;48.382;9.802;2023-05-29T19:13:53;93936.13;;;18.78;56.61
53522;BME280;39398;48.382;9.802;2023-05-29T19:18:55;93928.88;;;18.33;58.18
53522;BME280;39398;48.382;9.802;2023-05-29T19:23:58;93932.72;;;17.97;60.25
53522;BME280;39398;48.382;9.802;2023-05-29T19:28:59;93937.88;;;17.87;59.75
53522;BME280;39398;48.382;9.802;2023-05-29T19:34:01;93937.28;;;17.85;59.75
53522;BME280;39398;48.382;9.802;2023-05-29T19:39:04;93949.56;;;17.86;59.00
53522;BME280;39398;48.382;9.802;2023-05-29T19:44:06;93950.16;;;17.76;59.01
53522;BME280;39398;48.382;9.802;2023-05-29T19:49:07;93961.34;;;17.61;60.00
53522;BME280;39398;48.382;9.802;2023-05-29T19:54:10;93968.75;;;17.48;59.91
53522;BME280;39398;48.382;9.802;2023-05-29T19:59:12;93977.34;;;17.38;60.39
53522;BME280;39398;48.382;9.802;2023-05-29T20:04:14;93990.09;;;17.48;59.47
53522;BME280;39398;48.382;9.802;2023-05-29T20:09:16;93988.34;;;17.41;59.46
53522;BME280;39398;48.382;9.802;2023-05-29T20:14:18;93993.59;;;17.72;57.28
53522;BME280;39398;48.382;9.802;2023-05-29T20:19:20;93991.38;;;17.33;58.32
53522;BME280;39398;48.382;9.802;2023-05-29T20:24:22;94000.41;;;15.81;68.00
53522;BME280;39398;48.382;9.802;2023-05-29T20:29:24;93999.97;;;16.03;67.03
53522;BME280;39398;48.382;9.802;2023-05-29T20:34:26;94005.88;;;15.43;69.20
53522;BME280;39398;48.382;9.802;2023-05-29T20:39:29;94009.00;;;15.15;71.02
53522;BME280;39398;48.382;9.802;2023-05-29T20:44:30;94024.16;;;14.83;75.19
53522;BME280;39398;48.382;9.802;2023-05-29T20:49:32;94019.22;;;14.61;77.81
53522;BME280;39398;48.382;9.802;2023-05-29T20:54:36;94020.28;;;15.10;76.32
53522;BME280;39398;48.382;9.802;2023-05-29T20:59:37;94017.63;;;14.85;78.24
53522;BME280;39398;48.382;9.802;2023-05-29T21:04:39;94019.31;;;15.30;75.01
53522;BME280;39398;48.382;9.802;2023-05-29T21:09:42;94013.63;;;15.01;77.11
53522;BME280;39398;48.382;9.802;2023-05-29T21:14:44;94016.69;;;14.98;78.83
53522;BME280;39398;48.382;9.802;2023-05-29T21:19:45;94009.38;;;14.94;79.58
53522;BME280;39398;48.382;9.802;2023-05-29T21:24:48;94006.16;;;14.85;79.90
53522;BME280;39398;48.382;9.802;2023-05-29T21:29:50;94005.56;;;14.83;79.79
53522;BME280;39398;48.382;9.802;2023-05-29T21:34:51;93998.19;;;14.53;83.63
53522;BME280;39398;48.382;9.802;2023-05-29T21:39:54;94003.53;;;14.53;83.48
53522;BME280;39398;48.382;9.802;2023-05-29T21:44:56;94007.41;;;14.44;85.01
53522;BME280;39398;48.382;9.802;2023-05-29T21:49:57;94012.00;;;14.69;84.43
53522;BME280;39398;48.382;9.802;2023-05-29T21:55:00;94006.97;;;14.85;83.77
53522;BME280;39398;48.382;9.802;2023-05-29T22:00:03;94018.13;;;14.31;87.67
53522;BME280;39398;48.382;9.802;2023-05-29T22:05:05;94017.38;;;14.17;89.61
53522;BME280;39398;48.382;9.802;2023-05-29T22:10:09;94026.59;;;14.08;90.44
53522;BME280;39398;48.382;9.802;2023-05-29T22:15:10;94013.69;;;14.18;90.02
53522;BME280;39398;48.382;9.802;2023-05-29T22:20:12;94001.94;;;14.32;88.64
53522;BME280;39398;48.382;9.802;2023-05-29T22:25:15;94002.97;;;13.86;92.83
53522;BME280;39398;48.382;9.802;2023-05-29T22:30:17;94006.00;;;13.96;92.12
53522;BME280;39398;48.382;9.802;2023-05-29T22:35:18;94010.91;;;13.93;92.36
53522;BME280;39398;48.382;9.802;2023-05-29T22:40:21;94008.97;;;13.62;95.21
53522;BME280;39398;48.382;9.802;2023-05-29T22:45:23;94005.25;;;13.83;93.07
53522;BME280;39398;48.382;9.802;2023-05-29T22:50:25;94007.16;;;13.49;96.75
53522;BME280;39398;48.382;9.802;2023-05-29T22:55:27;94004.72;;;13.47;96.82
53522;BME280;39398;48.382;9.802;2023-05-29T23:00:30;94005.25;;;13.76;93.94
53522;BME280;39398;48.382;9.802;2023-05-29T23:05:31;93999.38;;;13.67;94.69
53522;BME280;39398;48.382;9.802;2023-05-29T23:10:35;94003.69;;;13.55;96.85
53522;BME280;39398;48.382;9.802;2023-05-29T23:15:36;94004.72;;;13.41;97.64
53522;BME280;39398;48.382;9.802;2023-05-29T23:20:38;94003.47;;;13.57;96.99
53522;BME280;39398;48.382;9.802;2023-05-29T23:25:41;94003.50;;;13.30;99.14
53522;BME280;39398;48.382;9.802;2023-05-29T23:30:43;94000.69;;;13.25;99.54
53522;BME280;39398;48.382;9.802;2023-05-29T23:35:44;93994.72;;;13.56;96.45
53522;BME280;39398;48.382;9.802;2023-05-29T23:40:47;93996.78;;;13.21;99.75
53522;BME280;39398;48.382;9.802;2023-05-29T23:45:49;93998.00;;;13.32;99.10
53522;BME280;39398;48.382;9.802;2023-05-29T23:50:50;94005.13;;;13.11;100.00
53522;BME280;39398;48.382;9.802;2023-05-29T23:55:53;93999.03;;;12.77;100.00
